Decoded Metar for YPLM (LEARMONTH in AUSTRALIA) (IATA:LEA) | Meteo·Mobile Aviation Weather
aviador You're here:

YPLM Decoded Metar

LEARMONTH in AUSTRALIA
Report Time2019-07-22 16:00:00
UTC Time2019-07-22 16:42:42
Flight Rules vfr VFR
Wind250° at 05 kt
W.Decomp.*RWY 18: 1.8 kt HW 4.7 kt RCW
Visibility9999 m
Phenomena:N/A
Clouds:Scattered 120 Hf
Expected CloudBase > 4,800 ft AGL from Temp-Dew spread
CeilingNone
Temp15°C (ISA 0)
Dew Point03°C (45% RH)
AAT11.7°C
QNH1018 hPa
Density Alt-39 ft
Elevation20 ft
Report Wrong Elevation
Raw Report
METAR YPLM 221600Z AUTO 25005KT 9999 // SCT120 15/03 Q1018
RF00.0/000.0=

Extra information for YPLM:More info

Metar Taf Metar & Taf Last 4 Metars F.Rules Stats Wind Profile Meteogram Temp Stats Airport Information Weather charts Add Link Nearby VenuesMetar ALERT Operation Metar Decoded Social comments